Time;durP1;ratioP1;P1;durP2;ratioP2;P2;SDS_P1;SDS_P2;PMS_P1;PMS_P2;Temp;Humidity;BMP_temperature;BMP_pressure;BME280_temperature;BME280_humidity;BME280_pressure;Samples;Min_cycle;Max_cycle;Signal;HPM_P1;HPM_P2
2022/03/24 00:00:06;;;;;;;29.20;19.27;;;4.70;99.90;;;;;;5087926;28;20203;-80
2022/03/24 00:02:32;;;;;;;27.77;20.97;;;4.70;99.90;;;;;;5088173;28;20545;-80
2022/03/24 00:04:57;;;;;;;30.67;19.70;;;4.60;99.90;;;;;;5087098;28;20175;-80
2022/03/24 00:07:23;;;;;;;28.83;19.03;;;4.60;99.90;;;;;;5087336;28;20579;-80
2022/03/24 00:09:49;;;;;;;28.63;20.13;;;4.60;99.90;;;;;;5087787;28;20589;-80
2022/03/24 00:12:16;;;;;;;30.60;20.23;;;4.60;99.90;;;;;;5089406;28;20187;-80
2022/03/24 00:14:42;;;;;;;26.10;18.50;;;4.60;99.90;;;;;;5088074;28;20237;-80
2022/03/24 00:17:08;;;;;;;31.80;20.23;;;4.50;99.90;;;;;;5088242;28;20171;-80
2022/03/24 00:19:34;;;;;;;33.63;20.20;;;4.50;99.90;;;;;;5089243;28;20199;-80
2022/03/24 00:22:00;;;;;;;30.13;20.77;;;4.40;99.90;;;;;;5090911;28;20174;-80
2022/03/24 00:24:26;;;;;;;29.43;20.57;;;4.40;99.90;;;;;;5093376;28;20151;-80
2022/03/24 00:26:51;;;;;;;32.37;20.50;;;4.40;99.90;;;;;;5101182;28;20179;-80
2022/03/24 00:29:17;;;;;;;29.10;19.30;;;4.40;99.90;;;;;;5091076;28;20603;-80
2022/03/24 00:31:42;;;;;;;32.20;20.20;;;4.30;99.90;;;;;;5088105;28;20577;-80
2022/03/24 00:34:09;;;;;;;31.40;21.10;;;4.20;99.90;;;;;;5096479;28;20189;-80
2022/03/24 00:36:34;;;;;;;29.40;21.07;;;4.20;99.90;;;;;;5101313;28;20175;-79
2022/03/24 00:39:00;;;;;;;32.00;20.27;;;4.20;99.90;;;;;;5101383;28;20223;-80
2022/03/24 00:41:28;;;;;;;28.93;20.73;;;4.10;99.90;;;;;;5101242;28;20166;-79
2022/03/24 00:43:53;;;;;;;31.90;20.33;;;4.10;99.90;;;;;;5096227;28;20159;-80
2022/03/24 00:46:22;;;;;;;27.00;18.83;;;4.10;99.90;;;;;;5078426;28;20171;-79
2022/03/24 00:48:52;;;;;;;26.13;18.87;;;4.10;99.90;;;;;;5079111;28;20193;-80
2022/03/24 00:51:18;;;;;;;33.43;20.10;;;4.00;99.90;;;;;;5077469;28;20203;-80
2022/03/24 00:53:44;;;;;;;28.37;19.90;;;3.90;99.90;;;;;;5080379;28;20167;-79
2022/03/24 00:56:10;;;;;;;31.47;19.77;;;3.90;99.90;;;;;;5078306;28;20220;-80
2022/03/24 00:58:36;;;;;;;32.90;19.77;;;3.90;99.90;;;;;;5081655;28;20167;-80
2022/03/24 01:01:04;;;;;;;31.40;21.30;;;3.90;99.90;;;;;;5078568;28;20195;-79
2022/03/24 01:03:29;;;;;;;36.13;21.23;;;3.90;99.90;;;;;;5080580;28;20173;-79
2022/03/24 01:05:57;;;;;;;30.23;20.50;;;3.90;99.90;;;;;;5080088;28;20179;-79
2022/03/24 01:08:22;;;;;;;29.33;19.47;;;3.80;99.90;;;;;;5080685;28;20171;-79
2022/03/24 01:10:48;;;;;;;29.33;21.07;;;3.80;99.90;;;;;;5081968;28;20195;-80
2022/03/24 01:13:15;;;;;;;30.80;20.93;;;3.70;99.90;;;;;;5082052;28;20167;-79
2022/03/24 01:15:45;;;;;;;40.33;20.70;;;3.70;99.90;;;;;;5082825;28;20274;-79
2022/03/24 01:18:14;;;;;;;31.23;20.13;;;3.70;99.90;;;;;;5080617;28;20171;-79
2022/03/24 01:20:40;;;;;;;40.43;21.97;;;3.70;99.90;;;;;;5080517;28;20187;-79
2022/03/24 01:23:05;;;;;;;30.60;20.27;;;3.70;99.90;;;;;;5079331;28;20174;-79
2022/03/24 01:25:31;;;;;;;32.03;21.53;;;3.60;99.90;;;;;;5082386;28;20170;-79
2022/03/24 01:27:56;;;;;;;27.03;19.80;;;3.60;99.90;;;;;;5082285;28;20210;-79
2022/03/24 01:30:22;;;;;;;36.83;21.07;;;3.60;99.90;;;;;;5082294;28;20225;-79
2022/03/24 01:32:48;;;;;;;31.87;21.60;;;3.60;99.90;;;;;;5080081;28;20177;-79
2022/03/24 01:35:15;;;;;;;32.47;21.17;;;3.50;99.90;;;;;;5081990;28;20195;-80
2022/03/24 01:37:41;;;;;;;29.10;19.80;;;3.50;99.90;;;;;;5080789;28;20167;-79
2022/03/24 01:40:09;;;;;;;34.87;21.30;;;3.40;99.90;;;;;;5081278;28;20562;-80
2022/03/24 01:42:36;;;;;;;40.33;21.07;;;3.40;99.90;;;;;;5081831;28;20178;-79
2022/03/24 01:45:03;;;;;;;31.53;23.00;;;3.40;99.90;;;;;;5079309;28;20262;-80
2022/03/24 01:47:28;;;;;;;34.57;22.07;;;3.30;99.90;;;;;;5081160;28;20233;-79
2022/03/24 01:49:58;;;;;;;40.07;22.37;;;3.30;99.90;;;;;;5079141;28;20621;-79
2022/03/24 01:52:25;;;;;;;34.67;23.43;;;3.30;99.90;;;;;;5080267;28;20266;-79
2022/03/24 01:54:54;;;;;;;32.70;21.83;;;3.20;99.90;;;;;;5078867;28;20195;-79
2022/03/24 01:57:21;;;;;;;35.77;24.30;;;3.20;99.90;;;;;;5082464;28;20187;-79
2022/03/24 01:59:49;;;;;;;32.60;23.30;;;3.10;99.90;;;;;;5081984;28;20202;-79
2022/03/24 02:02:15;;;;;;;38.53;23.33;;;3.10;99.90;;;;;;5082275;28;20194;-80
2022/03/24 02:04:43;;;;;;;33.90;22.33;;;3.10;99.90;;;;;;5082033;28;20728;-79
2022/03/24 02:07:08;;;;;;;33.13;22.43;;;3.10;99.90;;;;;;5080138;28;20243;-80
2022/03/24 02:09:36;;;;;;;35.67;22.43;;;3.10;99.90;;;;;;5081864;28;20219;-79
2022/03/24 02:12:04;;;;;;;33.67;22.53;;;3.00;99.90;;;;;;5080448;28;20179;-80
2022/03/24 02:14:29;;;;;;;37.07;21.50;;;3.00;99.90;;;;;;5082654;28;20281;-80
2022/03/24 02:16:56;;;;;;;36.33;23.10;;;3.00;99.90;;;;;;5083124;28;20206;-80
2022/03/24 02:19:24;;;;;;;36.03;21.87;;;3.00;99.90;;;;;;5083184;28;20187;-79
2022/03/24 02:22:13;;;;;;;32.07;22.07;;;3.00;99.90;;;;;;5080865;28;20175;-80
2022/03/24 02:24:39;;;;;;;28.97;18.93;;;3.00;99.90;;;;;;5074453;28;20191;-80
2022/03/24 02:27:05;;;;;;;28.07;19.93;;;3.00;99.90;;;;;;5083470;28;20186;-80
2022/03/24 02:29:31;;;;;;;31.07;20.87;;;3.00;99.90;;;;;;5084305;28;20190;-79
2022/03/24 02:31:56;;;;;;;30.33;20.83;;;2.90;99.90;;;;;;5082766;28;20182;-79
2022/03/24 02:34:40;;;;;;;30.60;19.77;;;2.90;99.90;;;;;;5083640;28;20217;-78
2022/03/24 02:37:08;;;;;;;32.03;22.00;;;2.90;99.90;;;;;;5077863;28;20176;-77
2022/03/24 02:39:41;;;;;;;33.30;20.27;;;2.80;99.90;;;;;;5077287;28;20201;-77
2022/03/24 02:42:13;;;;;;;29.20;19.93;;;2.80;99.90;;;;;;5078735;28;20175;-77
2022/03/24 02:44:39;;;;;;;35.60;21.50;;;2.80;99.90;;;;;;5076755;28;20174;-77
2022/03/24 02:47:06;;;;;;;43.43;22.93;;;2.80;99.90;;;;;;5079093;28;20179;-78
2022/03/24 02:49:33;;;;;;;32.77;22.00;;;2.80;99.90;;;;;;5077563;28;20221;-77
2022/03/24 02:52:00;;;;;;;33.43;21.17;;;2.70;99.90;;;;;;5079386;28;20178;-78
2022/03/24 02:54:26;;;;;;;30.57;21.20;;;2.70;99.90;;;;;;5079087;28;20280;-77
2022/03/24 02:56:52;;;;;;;39.97;21.87;;;2.60;99.90;;;;;;5078393;28;20171;-77
2022/03/24 02:59:18;;;;;;;32.87;20.83;;;2.60;99.90;;;;;;5078515;28;20259;-77
2022/03/24 03:01:52;;;;;;;32.20;21.80;;;2.60;99.90;;;;;;5082264;28;20170;-77
2022/03/24 03:04:18;;;;;;;37.10;21.43;;;2.60;99.90;;;;;;5094957;28;20149;-79
2022/03/24 03:06:45;;;;;;;34.63;21.50;;;2.50;99.90;;;;;;5098327;28;20170;-79
2022/03/24 03:09:14;;;;;;;33.00;21.47;;;2.50;99.90;;;;;;5082440;28;20175;-80
2022/03/24 03:11:43;;;;;;;34.43;21.10;;;2.40;99.90;;;;;;5079946;28;20184;-80
2022/03/24 03:14:11;;;;;;;32.63;21.73;;;2.50;99.90;;;;;;5082852;28;20179;-80
2022/03/24 03:16:38;;;;;;;31.30;20.97;;;2.40;99.90;;;;;;5078197;28;20178;-77
2022/03/24 03:19:03;;;;;;;30.30;20.83;;;2.40;99.90;;;;;;5076878;28;20175;-77
2022/03/24 03:21:29;;;;;;;32.47;21.33;;;2.40;99.90;;;;;;5078334;28;20655;-78
2022/03/24 03:23:55;;;;;;;36.17;20.97;;;2.40;99.90;;;;;;5079234;28;20175;-78
2022/03/24 03:26:22;;;;;;;37.10;21.70;;;2.30;99.90;;;;;;5076995;28;20178;-78
2022/03/24 03:28:47;;;;;;;35.10;21.53;;;2.30;99.90;;;;;;5077163;28;20186;-77
2022/03/24 03:31:14;;;;;;;32.67;21.13;;;2.30;99.90;;;;;;5079026;28;20222;-78
2022/03/24 03:33:39;;;;;;;33.53;20.70;;;2.20;99.90;;;;;;5078288;28;20171;-77
2022/03/24 03:36:05;;;;;;;31.20;21.83;;;2.20;99.90;;;;;;5078691;28;20253;-77
2022/03/24 03:38:33;;;;;;;32.53;20.90;;;2.20;99.90;;;;;;5077105;28;20171;-77
2022/03/24 03:41:00;;;;;;;32.77;21.17;;;2.20;99.90;;;;;;5080226;28;20220;-77
2022/03/24 03:43:26;;;;;;;30.43;19.83;;;2.10;99.90;;;;;;5083482;28;20179;-78
2022/03/24 03:45:52;;;;;;;32.73;21.07;;;2.10;99.90;;;;;;5086831;28;20229;-77
2022/03/24 03:48:17;;;;;;;38.37;22.03;;;2.10;99.90;;;;;;5094517;28;20179;-78
2022/03/24 03:50:43;;;;;;;32.33;21.63;;;2.10;99.90;;;;;;5106025;22;20592;-76
2022/03/24 03:53:09;;;;;;;31.03;20.40;;;2.00;99.90;;;;;;5052391;28;20168;-76
2022/03/24 03:55:36;;;;;;;36.03;20.97;;;2.00;99.90;;;;;;5052643;28;20203;-76
2022/03/24 03:58:05;;;;;;;30.80;20.60;;;2.00;99.90;;;;;;5052400;28;20521;-76
2022/03/24 04:03:15;;;;;;;29.80;21.20;;;2.00;99.90;;;;;;5052724;28;20154;-76
2022/03/24 04:05:41;;;;;;;31.97;20.63;;;1.90;99.90;;;;;;5052385;28;20170;-76
2022/03/24 04:08:09;;;;;;;30.40;19.80;;;1.90;99.90;;;;;;5052370;28;20180;-76
2022/03/24 04:10:35;;;;;;;33.37;21.57;;;1.90;99.90;;;;;;5052295;28;20262;-76
2022/03/24 04:13:00;;;;;;;32.00;20.57;;;1.90;99.90;;;;;;5052623;28;20180;-76
2022/03/24 04:15:26;;;;;;;33.70;20.83;;;1.90;99.90;;;;;;5052325;28;20226;-76
2022/03/24 04:17:52;;;;;;;34.10;20.80;;;1.80;99.90;;;;;;5051317;28;20183;-76
2022/03/24 04:20:21;;;;;;;34.87;21.23;;;1.80;99.90;;;;;;5055848;28;20170;-76
2022/03/24 04:22:50;;;;;;;34.03;20.37;;;1.80;99.90;;;;;;5056022;28;20653;-76
2022/03/24 04:25:26;;;;;;;32.63;19.70;;;1.80;99.90;;;;;;5054696;28;20183;-76
2022/03/24 04:27:51;;;;;;;31.47;20.67;;;1.80;99.90;;;;;;5057927;28;20212;-76
2022/03/24 04:30:21;;;;;;;34.27;19.90;;;1.70;99.90;;;;;;5055875;28;20250;-76
2022/03/24 04:32:47;;;;;;;34.10;20.43;;;1.70;99.90;;;;;;5055590;28;20176;-76
2022/03/24 04:35:16;;;;;;;27.97;19.13;;;1.70;99.90;;;;;;5055472;28;20630;-76
2022/03/24 04:37:43;;;;;;;34.50;21.30;;;1.70;99.90;;;;;;5055402;28;20182;-76
2022/03/24 04:40:11;;;;;;;31.03;20.47;;;1.70;99.90;;;;;;5055346;28;20171;-76
2022/03/24 04:42:38;;;;;;;30.57;19.33;;;1.60;99.90;;;;;;5055722;28;20258;-76
2022/03/24 04:45:04;;;;;;;33.10;19.97;;;1.60;99.90;;;;;;5055414;28;20259;-76
2022/03/24 04:47:30;;;;;;;33.67;20.50;;;1.60;99.90;;;;;;5055550;28;20184;-76
2022/03/24 04:49:55;;;;;;;29.80;20.50;;;1.60;99.90;;;;;;5053948;28;20189;-76
2022/03/24 04:52:22;;;;;;;32.00;20.27;;;1.50;99.90;;;;;;5055013;28;20210;-76
2022/03/24 04:54:48;;;;;;;32.40;20.93;;;1.50;99.90;;;;;;5055180;28;20651;-76
2022/03/24 04:57:13;;;;;;;33.33;19.97;;;1.40;99.90;;;;;;5053897;28;20640;-76
2022/03/24 04:59:39;;;;;;;31.23;20.70;;;1.40;99.90;;;;;;5055109;28;20266;-76
2022/03/24 05:02:08;;;;;;;32.57;21.60;;;1.30;99.90;;;;;;5055012;28;20198;-76
2022/03/24 05:04:34;;;;;;;32.80;20.37;;;1.30;99.90;;;;;;5055340;28;20583;-76
2022/03/24 05:06:59;;;;;;;33.63;20.90;;;1.30;99.90;;;;;;5053949;28;20341;-76
2022/03/24 05:09:25;;;;;;;31.00;20.87;;;1.30;99.90;;;;;;5054871;28;20266;-76
2022/03/24 05:11:51;;;;;;;32.80;20.43;;;1.20;99.90;;;;;;5054770;28;20251;-76
2022/03/24 05:14:16;;;;;;;32.83;20.07;;;1.20;99.90;;;;;;5054779;28;20177;-76
2022/03/24 05:16:42;;;;;;;30.43;19.77;;;1.20;99.90;;;;;;5055057;28;20170;-76
2022/03/24 05:19:07;;;;;;;35.97;19.50;;;1.20;99.90;;;;;;5054755;28;20544;-76
2022/03/24 05:21:33;;;;;;;36.63;20.93;;;1.20;99.90;;;;;;5054628;28;20672;-75
2022/03/24 05:24:00;;;;;;;35.20;20.07;;;1.20;99.90;;;;;;5055175;28;20170;-75
2022/03/24 05:26:26;;;;;;;29.47;19.13;;;1.20;99.90;;;;;;5053347;28;20221;-76
2022/03/24 05:28:52;;;;;;;33.77;20.03;;;1.20;99.90;;;;;;5054451;28;20252;-76
2022/03/24 05:31:18;;;;;;;34.33;20.20;;;1.20;99.90;;;;;;5054492;28;20201;-76
2022/03/24 05:33:44;;;;;;;37.57;20.17;;;1.20;99.90;;;;;;5053334;28;20181;-76
2022/03/24 05:36:10;;;;;;;34.83;19.70;;;1.20;99.90;;;;;;5053019;28;20202;-76
2022/03/24 05:38:37;;;;;;;29.50;20.40;;;1.20;99.90;;;;;;5054384;28;20176;-76
2022/03/24 05:41:04;;;;;;;32.23;19.63;;;1.20;99.90;;;;;;5054455;28;20718;-76
2022/03/24 05:43:29;;;;;;;33.97;21.10;;;1.10;99.90;;;;;;5054468;28;20167;-76
2022/03/24 05:45:55;;;;;;;34.00;19.70;;;1.20;99.90;;;;;;5053125;28;20272;-75
2022/03/24 05:48:21;;;;;;;27.17;19.17;;;1.20;99.90;;;;;;5053888;28;20200;-78
2022/03/24 05:50:46;;;;;;;32.67;20.70;;;1.20;99.90;;;;;;5056873;28;20224;-79
2022/03/24 05:53:12;;;;;;;28.70;18.77;;;1.20;99.90;;;;;;5057839;28;20183;-79
2022/03/24 05:55:40;;;;;;;31.50;19.43;;;1.20;99.90;;;;;;5055215;28;20218;-77
2022/03/24 05:58:05;;;;;;;28.13;18.67;;;1.20;99.90;;;;;;5053430;28;20171;-77
2022/03/24 06:00:31;;;;;;;31.03;20.23;;;1.20;99.90;;;;;;5053244;28;20194;-77
2022/03/24 06:02:57;;;;;;;29.17;19.03;;;1.20;99.90;;;;;;5053363;28;20183;-77
2022/03/24 06:05:25;;;;;;;29.53;20.60;;;1.20;99.90;;;;;;5053200;28;20266;-77
2022/03/24 06:07:50;;;;;;;31.63;19.33;;;1.20;99.90;;;;;;5054385;28;20715;-77
2022/03/24 06:10:16;;;;;;;30.60;19.37;;;1.20;99.90;;;;;;5054888;28;20264;-77
2022/03/24 06:12:42;;;;;;;31.60;19.43;;;1.20;99.90;;;;;;5054799;28;20183;-77
2022/03/24 06:15:08;;;;;;;30.67;19.50;;;1.30;99.90;;;;;;5055855;28;20310;-77
2022/03/24 06:17:34;;;;;;;32.43;19.73;;;1.30;99.90;;;;;;5056108;28;20182;-78
2022/03/24 06:20:04;;;;;;;31.23;20.57;;;1.30;99.90;;;;;;5055672;28;20175;-78
2022/03/24 06:22:31;;;;;;;28.70;19.87;;;1.30;99.90;;;;;;5054865;28;20175;-78
2022/03/24 06:24:57;;;;;;;29.20;19.57;;;1.30;99.90;;;;;;5053765;28;20233;-78
2022/03/24 06:27:22;;;;;;;33.43;19.37;;;1.40;99.90;;;;;;5052999;28;20561;-78
2022/03/24 06:29:48;;;;;;;29.00;19.37;;;1.40;99.90;;;;;;5054563;28;20171;-78
2022/03/24 06:32:15;;;;;;;30.57;19.80;;;1.50;99.90;;;;;;5054224;28;20199;-78
2022/03/24 06:34:40;;;;;;;32.17;20.97;;;1.50;99.90;;;;;;5054174;28;20568;-77
2022/03/24 06:37:06;;;;;;;34.80;21.20;;;1.50;99.90;;;;;;5053201;28;20175;-77
2022/03/24 06:39:31;;;;;;;29.87;19.73;;;1.60;99.90;;;;;;5056763;28;20186;-79
2022/03/24 06:41:57;;;;;;;29.23;18.93;;;1.70;99.90;;;;;;5054816;28;20200;-79
2022/03/24 06:44:22;;;;;;;31.47;20.30;;;1.70;99.90;;;;;;5055742;28;20186;-79
2022/03/24 06:46:48;;;;;;;28.77;18.67;;;1.70;99.90;;;;;;5057295;28;20183;-79
2022/03/24 06:49:15;;;;;;;30.63;19.83;;;1.80;99.90;;;;;;5057422;28;20522;-80
2022/03/24 06:51:41;;;;;;;33.00;20.30;;;1.90;99.90;;;;;;5057034;28;20221;-80
2022/03/24 06:54:06;;;;;;;31.27;19.20;;;1.90;99.90;;;;;;5055963;28;20249;-79
2022/03/24 06:56:32;;;;;;;38.10;22.00;;;2.00;99.90;;;;;;5057158;28;20250;-79
2022/03/24 06:58:58;;;;;;;35.97;21.70;;;2.10;99.90;;;;;;5058311;28;20247;-79
2022/03/24 07:01:24;;;;;;;31.07;21.23;;;2.20;99.90;;;;;;5064055;28;20211;-78
2022/03/24 07:03:50;;;;;;;32.23;21.20;;;2.30;99.90;;;;;;5072555;28;20170;-77
2022/03/24 07:06:16;;;;;;;35.10;21.73;;;2.40;99.90;;;;;;5070113;28;20692;-79
2022/03/24 07:08:41;;;;;;;32.83;21.87;;;2.40;99.90;;;;;;5056829;28;20235;-79
2022/03/24 07:11:07;;;;;;;31.90;22.10;;;2.50;99.90;;;;;;5056064;28;20604;-79
2022/03/24 07:13:33;;;;;;;34.17;20.63;;;2.60;99.90;;;;;;5054351;28;20649;-79
2022/03/24 07:15:58;;;;;;;41.47;24.03;;;2.70;99.90;;;;;;5056876;28;20241;-79
2022/03/24 07:18:24;;;;;;;34.70;22.97;;;2.80;99.90;;;;;;5054854;28;20194;-79
2022/03/24 07:20:50;;;;;;;35.70;22.00;;;2.90;99.90;;;;;;5054156;28;20190;-79
2022/03/24 07:23:17;;;;;;;41.93;26.23;;;3.00;99.90;;;;;;5056203;28;20322;-79
2022/03/24 07:25:43;;;;;;;37.17;24.87;;;3.10;99.90;;;;;;5061575;28;20216;-78
2022/03/24 07:28:11;;;;;;;40.53;25.27;;;3.30;99.90;;;;;;5067281;28;20239;-78
2022/03/24 07:30:37;;;;;;;42.40;25.07;;;3.40;99.90;;;;;;5068098;28;20183;-77
2022/03/24 07:33:03;;;;;;;44.43;26.63;;;3.60;99.90;;;;;;5066949;28;20179;-78
2022/03/24 07:35:34;;;;;;;40.60;27.00;;;3.70;99.90;;;;;;5068056;28;20269;-78
2022/03/24 07:38:00;;;;;;;40.93;26.73;;;3.80;99.90;;;;;;5068988;28;20175;-78
2022/03/24 07:40:26;;;;;;;49.27;27.47;;;4.00;99.90;;;;;;5068080;28;20266;-78
2022/03/24 07:42:53;;;;;;;46.70;29.03;;;4.10;99.90;;;;;;5060474;28;20270;-79
2022/03/24 07:45:22;;;;;;;40.87;27.70;;;4.20;99.90;;;;;;5057042;28;20251;-80
2022/03/24 07:48:07;;;;;;;42.53;28.00;;;4.40;99.90;;;;;;5057093;28;20203;-79
2022/03/24 07:50:33;;;;;;;46.27;27.03;;;4.60;99.90;;;;;;5057169;28;20211;-78
2022/03/24 07:53:13;;;;;;;41.80;26.03;;;4.80;99.90;;;;;;5056530;28;20262;-79
2022/03/24 07:55:43;;;;;;;42.07;27.63;;;4.90;99.90;;;;;;5060336;28;20218;-79
2022/03/24 07:58:09;;;;;;;43.80;28.53;;;5.10;99.90;;;;;;5058695;28;20183;-79
2022/03/24 08:00:35;;;;;;;51.50;29.97;;;5.20;99.90;;;;;;5059585;28;20195;-79
2022/03/24 08:03:01;;;;;;;45.50;29.53;;;5.40;89.40;;;;;;5059820;28;20642;-79
2022/03/24 08:05:26;;;;;;;49.33;28.77;;;5.50;99.90;;;;;;5059940;28;20240;-79
2022/03/24 08:07:56;;;;;;;44.43;29.23;;;5.70;92.10;;;;;;5058693;28;20551;-79
2022/03/24 08:10:22;;;;;;;47.37;28.73;;;5.90;1.00;;;;;;5060208;28;20163;-79
2022/03/24 08:12:48;;;;;;;42.40;27.50;;;6.00;1.00;;;;;;5059496;28;20615;-79
2022/03/24 08:15:13;;;;;;;47.33;27.67;;;6.10;99.90;;;;;;5059078;28;20236;-79
2022/03/24 08:17:39;;;;;;;44.00;28.80;;;6.30;99.90;;;;;;5060131;28;20171;-79
2022/03/24 08:20:06;;;;;;;52.80;29.80;;;6.50;1.00;;;;;;5059248;28;20178;-79
2022/03/24 08:22:32;;;;;;;47.17;29.30;;;6.60;1.00;;;;;;5059156;28;20172;-79
2022/03/24 08:24:57;;;;;;;45.47;29.03;;;6.80;99.90;;;;;;5057567;28;20542;-79
2022/03/24 08:27:24;;;;;;;43.73;28.40;;;6.80;1.00;;;;;;5059445;28;20199;-79
2022/03/24 08:29:49;;;;;;;43.10;29.47;;;7.00;44.90;;;;;;5059506;28;20172;-79
2022/03/24 08:32:15;;;;;;;44.93;30.10;;;7.00;1.00;;;;;;5060068;28;20218;-79
2022/03/24 08:34:41;;;;;;;50.27;29.33;;;7.20;99.90;;;;;;5059725;28;20286;-79
2022/03/24 08:37:06;;;;;;;44.67;29.73;;;7.30;1.00;;;;;;5059539;28;20880;-79
2022/03/24 08:39:33;;;;;;;45.77;28.87;;;7.30;99.90;;;;;;5059309;28;20658;-79
2022/03/24 08:41:58;;;;;;;44.10;28.67;;;7.50;1.00;;;;;;5059422;28;20583;-79
2022/03/24 08:44:24;;;;;;;44.23;28.93;;;7.60;1.00;;;;;;5059277;28;20171;-78
2022/03/24 08:46:50;;;;;;;48.17;29.00;;;7.70;99.90;;;;;;5058998;28;20603;-79
2022/03/24 08:49:15;;;;;;;43.83;27.50;;;7.90;1.00;;;;;;5059411;28;20175;-81
2022/03/24 08:51:41;;;;;;;48.57;30.23;;;8.00;99.90;;;;;;5059527;28;20207;-79
2022/03/24 08:54:07;;;;;;;43.47;29.20;;;8.00;99.90;;;;;;5059003;28;20595;-79
2022/03/24 08:56:33;;;;;;;42.70;29.43;;;8.30;1.00;;;;;;5058437;28;20177;-78
2022/03/24 08:58:59;;;;;;;46.97;30.23;;;8.40;1.00;;;;;;5057817;28;20656;-78
2022/03/24 09:01:27;;;;;;;47.20;28.67;;;8.60;1.00;;;;;;5057606;28;20180;-79
2022/03/24 09:03:52;;;;;;;46.00;30.10;;;8.80;1.00;;;;;;5057643;28;20191;-78
2022/03/24 09:06:18;;;;;;;48.00;30.77;;;9.00;99.90;;;;;;5057558;28;20179;-79
2022/03/24 09:08:44;;;;;;;44.13;28.97;;;9.30;99.90;;;;;;5057946;28;20167;-79
2022/03/24 09:11:09;;;;;;;43.30;29.27;;;9.50;1.00;;;;;;5057646;28;20206;-80
2022/03/24 09:13:35;;;;;;;47.40;30.13;;;9.70;1.00;;;;;;5056757;28;20180;-79
2022/03/24 09:16:01;;;;;;;41.50;28.57;;;10.00;99.90;;;;;;5056904;28;20214;-78
2022/03/24 09:18:27;;;;;;;45.03;29.97;;;10.10;99.90;;;;;;5055574;28;20222;-78
2022/03/24 09:20:52;;;;;;;44.23;30.47;;;10.30;99.90;;;;;;5058460;28;20198;-78
2022/03/24 09:23:18;;;;;;;43.90;29.50;;;10.30;99.90;;;;;;5058837;28;20257;-79
2022/03/24 09:25:44;;;;;;;47.53;30.27;;;10.30;99.90;;;;;;5056224;28;20187;-78
2022/03/24 09:28:10;;;;;;;44.30;30.53;;;10.40;99.90;;;;;;5057684;28;20171;-78
2022/03/24 09:30:36;;;;;;;46.23;29.67;;;10.50;99.90;;;;;;5056422;28;20225;-78
2022/03/24 09:33:03;;;;;;;45.67;30.33;;;10.50;99.90;;;;;;5057580;28;20581;-78
2022/03/24 09:35:28;;;;;;;46.30;30.97;;;10.60;99.90;;;;;;5056472;28;20244;-79
2022/03/24 09:37:54;;;;;;;43.90;30.70;;;10.70;99.90;;;;;;5056058;28;20650;-78
2022/03/24 09:40:20;;;;;;;45.90;30.00;;;11.00;1.00;;;;;;5056181;28;20267;-78
2022/03/24 09:42:46;;;;;;;44.57;29.87;;;11.00;1.00;;;;;;5056510;28;20186;-78
2022/03/24 09:45:13;;;;;;;44.90;29.57;;;11.00;1.00;;;;;;5057059;28;20740;-78
2022/03/24 09:47:40;;;;;;;50.53;29.33;;;11.10;1.00;;;;;;5057237;28;20195;-79
2022/03/24 09:50:09;;;;;;;46.37;31.37;;;11.20;1.00;;;;;;5058206;28;20317;-79
2022/03/24 09:52:34;;;;;;;40.80;29.03;;;11.40;99.90;;;;;;5069546;22;20226;-75
2022/03/24 09:55:00;;;;;;;44.90;29.57;;;11.60;99.90;;;;;;5054201;28;20676;-76
2022/03/24 09:57:26;;;;;;;45.90;30.47;;;11.70;99.90;;;;;;5054268;28;20191;-75
2022/03/24 09:59:52;;;;;;;43.93;29.07;;;11.80;99.90;;;;;;5053942;28;20164;-75
2022/03/24 10:02:18;;;;;;;46.67;31.00;;;11.80;99.90;;;;;;5054062;28;20184;-75
2022/03/24 10:05:06;;;;;;;42.63;30.80;;;12.00;99.90;;;;;;5052616;28;20587;-76
2022/03/24 10:07:44;;;;;;;47.87;31.37;;;11.80;99.90;;;;;;5053967;28;20205;-76
2022/03/24 10:10:23;;;;;;;47.43;30.03;;;11.80;1.00;;;;;;5054007;28;20632;-75
2022/03/24 10:12:48;;;;;;;54.40;31.47;;;11.80;1.00;;;;;;5052326;28;20197;-76
2022/03/24 10:15:15;;;;;;;44.97;30.93;;;11.90;1.00;;;;;;5053235;28;20191;-76
2022/03/24 10:17:53;;;;;;;45.57;32.17;;;11.90;1.00;;;;;;5053190;28;20275;-75
2022/03/24 10:20:20;;;;;;;50.97;32.30;;;12.00;1.00;;;;;;5053638;28;20171;-77
2022/03/24 10:22:52;;;;;;;47.77;32.73;;;12.10;99.90;;;;;;5053374;28;20197;-75
2022/03/24 10:25:21;;;;;;;46.30;31.57;;;12.30;99.90;;;;;;5052199;28;20176;-75
2022/03/24 10:28:00;;;;;;;48.60;30.17;;;12.40;99.90;;;;;;5053895;28;20195;-77
2022/03/24 10:30:26;;;;;;;45.00;31.33;;;12.50;99.90;;;;;;5053930;28;20182;-76
2022/03/24 10:32:56;;;;;;;47.43;32.27;;;12.60;99.90;;;;;;5053497;28;20677;-76
2022/03/24 10:35:22;;;;;;;45.43;31.50;;;12.80;68.00;;;;;;5053620;28;20192;-76
2022/03/24 10:37:52;;;;;;;51.07;32.87;;;12.80;8.00;;;;;;5053263;28;20176;-76
2022/03/24 10:40:18;;;;;;;45.93;31.27;;;12.80;68.10;;;;;;5053438;28;20175;-76
2022/03/24 10:42:44;;;;;;;48.00;31.00;;;12.90;59.40;;;;;;5051847;28;20195;-77
2022/03/24 10:45:13;;;;;;;51.00;32.90;;;12.90;50.20;;;;;;5053435;28;20305;-75
2022/03/24 10:47:54;;;;;;;46.63;32.00;;;13.00;76.10;;;;;;5053079;28;20171;-76
2022/03/24 10:50:25;;;;;;;49.73;32.70;;;13.20;57.10;;;;;;5053303;28;20179;-76
2022/03/24 10:52:53;;;;;;;48.17;31.63;;;13.50;1.00;;;;;;5052906;28;20582;-76
2022/03/24 10:55:33;;;;;;;48.67;31.70;;;13.50;1.00;;;;;;5053254;28;20191;-76
2022/03/24 10:58:00;;;;;;;45.80;31.33;;;13.50;1.00;;;;;;5053025;28;20167;-75
2022/03/24 11:00:26;;;;;;;49.87;31.23;;;13.70;1.00;;;;;;5052953;28;20159;-75
2022/03/24 11:02:51;;;;;;;45.10;31.37;;;13.80;1.00;;;;;;5052852;28;20188;-76
2022/03/24 11:05:17;;;;;;;48.90;31.53;;;13.90;1.00;;;;;;5052899;28;20270;-76
2022/03/24 11:07:52;;;;;;;45.10;31.50;;;13.90;1.00;;;;;;5052994;28;20335;-75
2022/03/24 11:10:17;;;;;;;42.33;28.60;;;14.10;1.00;;;;;;5053199;28;20163;-75
2022/03/24 11:12:44;;;;;;;37.47;27.97;;;14.40;99.90;;;;;;5052715;28;20227;-76
2022/03/24 11:15:10;;;;;;;34.73;26.93;;;14.50;99.90;;;;;;5052721;28;20195;-76
2022/03/24 11:17:38;;;;;;;37.43;27.20;;;14.50;99.90;;;;;;5051506;28;20167;-76
2022/03/24 11:20:04;;;;;;;38.00;28.30;;;14.40;99.90;;;;;;5053178;28;20590;-76
2022/03/24 11:22:54;;;;;;;35.97;28.27;;;14.50;99.90;;;;;;5052784;28;20271;-76
2022/03/24 11:25:21;;;;;;;41.10;28.97;;;14.70;99.90;;;;;;5051808;28;20537;-76
2022/03/24 11:27:49;;;;;;;40.10;28.60;;;14.70;99.90;;;;;;5053288;28;20175;-75
2022/03/24 11:30:16;;;;;;;41.00;28.10;;;14.90;99.90;;;;;;5055520;28;20548;-76
2022/03/24 11:32:45;;;;;;;34.70;26.17;;;14.90;99.90;;;;;;5056628;28;20221;-75
2022/03/24 11:35:12;;;;;;;37.07;26.73;;;14.90;99.90;;;;;;5055346;28;20203;-75
2022/03/24 11:37:40;;;;;;;38.33;28.57;;;14.90;99.90;;;;;;5055395;28;20171;-75
2022/03/24 11:40:15;;;;;;;40.03;28.97;;;15.00;99.90;;;;;;5056653;28;20167;-76
2022/03/24 11:42:48;;;;;;;42.03;29.13;;;15.10;99.90;;;;;;5056514;28;20199;-75
2022/03/24 11:45:20;;;;;;;37.50;26.93;;;15.30;99.90;;;;;;5056819;28;20172;-75
2022/03/24 11:48:06;;;;;;;36.00;27.50;;;15.40;99.90;;;;;;5056853;28;20160;-75
2022/03/24 11:50:52;;;;;;;40.37;26.67;;;15.50;99.90;;;;;;5056673;28;20156;-75
2022/03/24 11:53:17;;;;;;;37.27;25.73;;;15.50;99.90;;;;;;5056979;28;20183;-75
2022/03/24 11:56:01;;;;;;;34.87;26.33;;;15.50;99.90;;;;;;5056627;28;20219;-75
2022/03/24 11:58:41;;;;;;;38.43;27.00;;;15.60;99.90;;;;;;5055053;28;20179;-77
2022/03/24 12:01:19;;;;;;;41.10;25.93;;;15.70;99.90;;;;;;5056530;28;20203;-75
2022/03/24 12:03:50;;;;;;;39.50;26.77;;;15.60;99.90;;;;;;5056248;28;20170;-76
2022/03/24 12:06:18;;;;;;;39.03;28.47;;;15.60;99.90;;;;;;5054901;28;20665;-76
2022/03/24 12:09:04;;;;;;;39.57;28.03;;;15.70;99.90;;;;;;5054857;28;20179;-75
2022/03/24 12:11:36;;;;;;;42.40;28.17;;;15.70;99.90;;;;;;5054779;28;20201;-75
2022/03/24 12:14:22;;;;;;;39.37;29.20;;;15.80;99.90;;;;;;5054788;28;20207;-75
2022/03/24 12:16:51;;;;;;;38.10;26.67;;;15.80;99.90;;;;;;5056022;28;20229;-75
2022/03/24 12:20:02;;;;;;;38.70;28.50;;;16.10;99.90;;;;;;5055979;28;20676;-75
2022/03/24 12:22:35;;;;;;;36.17;26.50;;;16.20;99.90;;;;;;5039000;28;20199;-76
2022/03/24 12:25:01;;;;;;;38.00;27.47;;;16.20;99.90;;;;;;5054623;28;20172;-75
2022/03/24 12:27:33;;;;;;;36.97;26.53;;;16.30;99.90;;;;;;5054469;28;20171;-75
2022/03/24 12:30:15;;;;;;;36.20;25.87;;;16.30;99.90;;;;;;5054477;28;20176;-75
2022/03/24 12:32:42;;;;;;;37.53;25.53;;;16.40;99.90;;;;;;5055652;28;20241;-75
2022/03/24 12:35:28;;;;;;;35.40;25.27;;;16.40;99.90;;;;;;5055747;28;20197;-75
2022/03/24 12:37:55;;;;;;;38.33;25.57;;;16.50;99.90;;;;;;5055551;28;20656;-75
2022/03/24 12:40:20;;;;;;;44.43;27.83;;;16.50;99.90;;;;;;5055199;28;20249;-75